Aquapuelche — D5NA5 — position and weather

sailwx.info

Track history (hours):
 
Tides and Currents Weather Stations Pressure Air Temp Water Temp Dewpoint Dewpoint Depression Visibility Wind Speed Wind Dir Waves Ship Positions

Aquapuelche

Last reported at 2018-Jan-19 06:31 UTC. Time now 2018-Jan-20 09:01 UTC.
Position N 34°27' E 139°52'.

Length 244 m; draft 13.5 m.

Type: Tanker. MMSI: 636017857.

Date/timePositionNaut miles runAvg speedWind from/ knotsBaromVisibWave heightAir tempDewpointWater temp
2018-Jan-19 06:31N 34°27' E 139°52'1 1.2
2018-Jan-19 05:56N 34°27' E 139°53'3 1.0
2018-Jan-19 02:55N 34°30' E 139°54'5 0.3
2018-Jan-18 10:18N 34°29' E 140°00'1 2.0
2018-Jan-18 10:00N 34°29' E 139°59'1 2.0
2018-Jan-18 09:29N 34°29' E 139°58'1 1.7
2018-Jan-18 09:00N 34°29' E 139°57'3 1.5
2018-Jan-18 06:52N 34°31' E 139°54'1411.3
2018-Jan-18 05:39N 34°43' E 139°46'312.2
2018-Jan-18 05:27N 34°45' E 139°45'612.1
2018-Jan-18 04:57N 34°50' E 139°40'4 8.5
2018-Jan-18 04:31N 34°51' E 139°36'510.7
2018-Jan-18 04:00N 34°56' E 139°37'612.3
2018-Jan-18 03:30N 35°01' E 139°41'612.6
2018-Jan-18 03:00N 35°07' E 139°45'510.8
2018-Jan-18 02:30N 35°12' E 139°46'510.9
2018-Jan-18 02:00N 35°17' E 139°45'611.2
2018-Jan-18 01:30N 35°22' E 139°42'713.5
2018-Jan-18 01:01N 35°27' E 139°48'  
Track history (hours):
 
Tides and Currents Weather Stations Pressure Air Temp Water Temp Dewpoint Dewpoint Depression Visibility Wind Speed Wind Dir Waves Ship Positions

Aquapuelche

Last reported at 2018-Jan-19 06:31 UTC. Time now 2018-Jan-20 09:01 UTC.
Position N 34°27' E 139°52'.

Length 244 m; draft 13.5 m.

Type: Tanker. MMSI: 636017857.

Date/timePositionNaut miles runAvg speedWind from/ knotsBaromVisibWave heightAir tempDewpointWater temp
2018-Jan-19 06:31N 34°27' E 139°52'1 1.2
2018-Jan-19 05:56N 34°27' E 139°53'3 1.0
2018-Jan-19 02:55N 34°30' E 139°54'5 0.3
2018-Jan-18 10:18N 34°29' E 140°00'1 2.0
2018-Jan-18 10:00N 34°29' E 139°59'1 2.0
2018-Jan-18 09:29N 34°29' E 139°58'1 1.7
2018-Jan-18 09:00N 34°29' E 139°57'3 1.5
2018-Jan-18 06:52N 34°31' E 139°54'1411.3
2018-Jan-18 05:39N 34°43' E 139°46'312.2
2018-Jan-18 05:27N 34°45' E 139°45'612.1
2018-Jan-18 04:57N 34°50' E 139°40'4 8.5
2018-Jan-18 04:31N 34°51' E 139°36'510.7
2018-Jan-18 04:00N 34°56' E 139°37'612.3
2018-Jan-18 03:30N 35°01' E 139°41'612.6
2018-Jan-18 03:00N 35°07' E 139°45'510.8
2018-Jan-18 02:30N 35°12' E 139°46'510.9
2018-Jan-18 02:00N 35°17' E 139°45'611.2
2018-Jan-18 01:30N 35°22' E 139°42'713.5
2018-Jan-18 01:01N 35°27' E 139°48'  

Dump ship's entire track history